sensor_id;sensor_type;location;lat;lon;timestamp;P1;durP1;ratioP1;P2;durP2;ratioP2
23449;SDS011;11897;45.438;12.128;2023-01-01T00:01:19;36.90;;;16.13;;
23449;SDS011;11897;45.438;12.128;2023-01-01T00:03:48;37.00;;;16.40;;
23449;SDS011;11897;45.438;12.128;2023-01-01T00:06:14;46.50;;;20.90;;
23449;SDS011;11897;45.438;12.128;2023-01-01T00:08:42;47.97;;;20.60;;
23449;SDS011;11897;45.438;12.128;2023-01-01T00:11:09;42.63;;;19.63;;
23449;SDS011;11897;45.438;12.128;2023-01-01T00:13:37;40.43;;;20.40;;
23449;SDS011;11897;45.438;12.128;2023-01-01T00:16:04;41.90;;;19.67;;
23449;SDS011;11897;45.438;12.128;2023-01-01T00:18:31;44.07;;;17.17;;
23449;SDS011;11897;45.438;12.128;2023-01-01T00:21:02;40.13;;;19.33;;
23449;SDS011;11897;45.438;12.128;2023-01-01T00:23:30;44.83;;;19.27;;
23449;SDS011;11897;45.438;12.128;2023-01-01T00:25:57;36.77;;;18.10;;
23449;SDS011;11897;45.438;12.128;2023-01-01T00:28:24;35.40;;;18.77;;
23449;SDS011;11897;45.438;12.128;2023-01-01T00:30:51;37.03;;;18.27;;
23449;SDS011;11897;45.438;12.128;2023-01-01T00:33:17;40.00;;;17.27;;
23449;SDS011;11897;45.438;12.128;2023-01-01T00:35:44;46.03;;;18.33;;
23449;SDS011;11897;45.438;12.128;2023-01-01T00:38:10;37.47;;;17.70;;
23449;SDS011;11897;45.438;12.128;2023-01-01T00:40:37;38.80;;;16.70;;
23449;SDS011;11897;45.438;12.128;2023-01-01T00:43:05;32.77;;;16.30;;
23449;SDS011;11897;45.438;12.128;2023-01-01T00:45:32;35.13;;;15.70;;
23449;SDS011;11897;45.438;12.128;2023-01-01T00:47:58;34.63;;;16.30;;
23449;SDS011;11897;45.438;12.128;2023-01-01T00:50:25;41.00;;;18.03;;
23449;SDS011;11897;45.438;12.128;2023-01-01T00:52:52;31.83;;;14.83;;
23449;SDS011;11897;45.438;12.128;2023-01-01T00:55:18;38.37;;;17.47;;
23449;SDS011;11897;45.438;12.128;2023-01-01T00:57:45;39.50;;;17.03;;
23449;SDS011;11897;45.438;12.128;2023-01-01T01:00:14;36.20;;;15.40;;
23449;SDS011;11897;45.438;12.128;2023-01-01T01:02:40;34.63;;;15.90;;
23449;SDS011;11897;45.438;12.128;2023-01-01T01:05:08;37.23;;;16.67;;
23449;SDS011;11897;45.438;12.128;2023-01-01T01:07:35;46.13;;;18.37;;
23449;SDS011;11897;45.438;12.128;2023-01-01T01:10:02;34.80;;;14.43;;
23449;SDS011;11897;45.438;12.128;2023-01-01T01:12:28;35.40;;;15.83;;
23449;SDS011;11897;45.438;12.128;2023-01-01T01:14:55;34.23;;;16.87;;
23449;SDS011;11897;45.438;12.128;2023-01-01T01:17:23;33.87;;;15.57;;
23449;SDS011;11897;45.438;12.128;2023-01-01T01:19:50;33.30;;;15.67;;
23449;SDS011;11897;45.438;12.128;2023-01-01T01:22:16;34.20;;;16.27;;
23449;SDS011;11897;45.438;12.128;2023-01-01T01:24:43;35.80;;;16.63;;
23449;SDS011;11897;45.438;12.128;2023-01-01T01:27:10;29.20;;;15.73;;
23449;SDS011;11897;45.438;12.128;2023-01-01T01:29:36;35.47;;;16.60;;
23449;SDS011;11897;45.438;12.128;2023-01-01T01:32:03;32.67;;;15.30;;
23449;SDS011;11897;45.438;12.128;2023-01-01T01:34:32;37.40;;;15.60;;
23449;SDS011;11897;45.438;12.128;2023-01-01T01:36:59;30.47;;;16.07;;
23449;SDS011;11897;45.438;12.128;2023-01-01T01:39:25;39.50;;;16.80;;
23449;SDS011;11897;45.438;12.128;2023-01-01T01:41:54;40.53;;;16.37;;
23449;SDS011;11897;45.438;12.128;2023-01-01T01:47:07;40.63;;;18.57;;
23449;SDS011;11897;45.438;12.128;2023-01-01T01:49:35;40.37;;;17.53;;
23449;SDS011;11897;45.438;12.128;2023-01-01T01:52:02;40.87;;;18.77;;
23449;SDS011;11897;45.438;12.128;2023-01-01T01:54:29;41.77;;;18.60;;
23449;SDS011;11897;45.438;12.128;2023-01-01T01:56:56;48.93;;;19.80;;
23449;SDS011;11897;45.438;12.128;2023-01-01T01:59:26;46.07;;;19.50;;
23449;SDS011;11897;45.438;12.128;2023-01-01T02:01:54;49.43;;;21.30;;
23449;SDS011;11897;45.438;12.128;2023-01-01T02:04:21;44.57;;;21.50;;
23449;SDS011;11897;45.438;12.128;2023-01-01T02:06:51;43.47;;;19.40;;
23449;SDS011;11897;45.438;12.128;2023-01-01T02:09:19;41.20;;;20.80;;
23449;SDS011;11897;45.438;12.128;2023-01-01T02:11:46;47.07;;;21.10;;
23449;SDS011;11897;45.438;12.128;2023-01-01T02:14:13;42.80;;;19.93;;
23449;SDS011;11897;45.438;12.128;2023-01-01T02:16:41;48.63;;;20.30;;
23449;SDS011;11897;45.438;12.128;2023-01-01T02:19:11;50.23;;;21.60;;
23449;SDS011;11897;45.438;12.128;2023-01-01T02:21:43;44.03;;;19.83;;
23449;SDS011;11897;45.438;12.128;2023-01-01T02:24:20;34.27;;;17.67;;
23449;SDS011;11897;45.438;12.128;2023-01-01T02:26:50;50.63;;;21.77;;
23449;SDS011;11897;45.438;12.128;2023-01-01T02:29:21;49.20;;;21.00;;
23449;SDS011;11897;45.438;12.128;2023-01-01T02:31:53;47.83;;;20.13;;
23449;SDS011;11897;45.438;12.128;2023-01-01T02:34:23;48.27;;;19.17;;
23449;SDS011;11897;45.438;12.128;2023-01-01T02:36:56;54.20;;;22.90;;
23449;SDS011;11897;45.438;12.128;2023-01-01T02:39:26;50.03;;;20.87;;
23449;SDS011;11897;45.438;12.128;2023-01-01T02:41:56;56.87;;;23.07;;
23449;SDS011;11897;45.438;12.128;2023-01-01T02:44:25;52.00;;;21.90;;
23449;SDS011;11897;45.438;12.128;2023-01-01T02:46:54;46.57;;;21.77;;
23449;SDS011;11897;45.438;12.128;2023-01-01T02:49:21;54.43;;;22.00;;
23449;SDS011;11897;45.438;12.128;2023-01-01T02:51:53;44.93;;;21.17;;
23449;SDS011;11897;45.438;12.128;2023-01-01T02:54:27;46.13;;;20.40;;
23449;SDS011;11897;45.438;12.128;2023-01-01T02:56:59;55.17;;;21.83;;
23449;SDS011;11897;45.438;12.128;2023-01-01T02:59:32;49.10;;;20.90;;
23449;SDS011;11897;45.438;12.128;2023-01-01T03:02:20;43.17;;;19.83;;
23449;SDS011;11897;45.438;12.128;2023-01-01T03:04:51;51.03;;;21.17;;
23449;SDS011;11897;45.438;12.128;2023-01-01T03:07:22;46.60;;;19.73;;
23449;SDS011;11897;45.438;12.128;2023-01-01T03:09:52;48.10;;;21.13;;
23449;SDS011;11897;45.438;12.128;2023-01-01T03:12:22;47.87;;;20.87;;
23449;SDS011;11897;45.438;12.128;2023-01-01T03:14:51;49.10;;;19.90;;
23449;SDS011;11897;45.438;12.128;2023-01-01T03:17:23;46.40;;;19.77;;
23449;SDS011;11897;45.438;12.128;2023-01-01T03:19:51;41.60;;;18.30;;
23449;SDS011;11897;45.438;12.128;2023-01-01T03:22:19;42.43;;;19.53;;
23449;SDS011;11897;45.438;12.128;2023-01-01T03:24:48;51.37;;;21.43;;
23449;SDS011;11897;45.438;12.128;2023-01-01T03:27:16;39.40;;;18.97;;
23449;SDS011;11897;45.438;12.128;2023-01-01T03:29:44;53.97;;;20.33;;
23449;SDS011;11897;45.438;12.128;2023-01-01T03:32:15;51.63;;;18.97;;
23449;SDS011;11897;45.438;12.128;2023-01-01T03:34:46;44.37;;;20.87;;
23449;SDS011;11897;45.438;12.128;2023-01-01T03:37:15;44.10;;;19.40;;
23449;SDS011;11897;45.438;12.128;2023-01-01T03:39:46;43.77;;;19.37;;
23449;SDS011;11897;45.438;12.128;2023-01-01T03:42:16;52.80;;;22.77;;
23449;SDS011;11897;45.438;12.128;2023-01-01T03:44:45;40.83;;;19.43;;
23449;SDS011;11897;45.438;12.128;2023-01-01T03:47:12;39.00;;;20.57;;
23449;SDS011;11897;45.438;12.128;2023-01-01T03:49:42;51.13;;;21.53;;
23449;SDS011;11897;45.438;12.128;2023-01-01T03:52:12;53.50;;;21.20;;
23449;SDS011;11897;45.438;12.128;2023-01-01T03:54:43;43.43;;;20.03;;
23449;SDS011;11897;45.438;12.128;2023-01-01T03:57:12;41.93;;;20.07;;
23449;SDS011;11897;45.438;12.128;2023-01-01T03:59:42;44.67;;;19.13;;
23449;SDS011;11897;45.438;12.128;2023-01-01T04:02:10;45.33;;;20.77;;
23449;SDS011;11897;45.438;12.128;2023-01-01T04:04:38;50.77;;;19.63;;
23449;SDS011;11897;45.438;12.128;2023-01-01T04:07:06;45.87;;;21.07;;
23449;SDS011;11897;45.438;12.128;2023-01-01T04:09:34;47.43;;;21.30;;
23449;SDS011;11897;45.438;12.128;2023-01-01T04:12:01;38.37;;;20.20;;
23449;SDS011;11897;45.438;12.128;2023-01-01T04:14:30;42.40;;;19.03;;
23449;SDS011;11897;45.438;12.128;2023-01-01T04:16:57;48.90;;;20.63;;
23449;SDS011;11897;45.438;12.128;2023-01-01T04:19:24;53.23;;;20.53;;
23449;SDS011;11897;45.438;12.128;2023-01-01T04:21:51;38.53;;;18.63;;
23449;SDS011;11897;45.438;12.128;2023-01-01T04:24:19;49.13;;;19.17;;
23449;SDS011;11897;45.438;12.128;2023-01-01T04:26:48;53.40;;;21.13;;
23449;SDS011;11897;45.438;12.128;2023-01-01T04:29:15;47.20;;;20.27;;
23449;SDS011;11897;45.438;12.128;2023-01-01T04:31:42;47.20;;;18.67;;
23449;SDS011;11897;45.438;12.128;2023-01-01T04:34:09;44.10;;;20.30;;
23449;SDS011;11897;45.438;12.128;2023-01-01T04:36:35;53.87;;;19.50;;
23449;SDS011;11897;45.438;12.128;2023-01-01T04:39:02;44.33;;;20.03;;
23449;SDS011;11897;45.438;12.128;2023-01-01T04:41:31;47.40;;;20.47;;
23449;SDS011;11897;45.438;12.128;2023-01-01T04:43:58;53.10;;;20.57;;
23449;SDS011;11897;45.438;12.128;2023-01-01T04:46:25;40.77;;;20.50;;
23449;SDS011;11897;45.438;12.128;2023-01-01T04:48:54;43.57;;;20.57;;
23449;SDS011;11897;45.438;12.128;2023-01-01T04:51:21;45.63;;;19.03;;
23449;SDS011;11897;45.438;12.128;2023-01-01T04:53:48;46.53;;;20.33;;
23449;SDS011;11897;45.438;12.128;2023-01-01T04:56:15;45.60;;;21.37;;
23449;SDS011;11897;45.438;12.128;2023-01-01T04:58:44;48.40;;;19.20;;
23449;SDS011;11897;45.438;12.128;2023-01-01T05:01:14;61.70;;;21.13;;
23449;SDS011;11897;45.438;12.128;2023-01-01T05:03:41;48.97;;;19.37;;
23449;SDS011;11897;45.438;12.128;2023-01-01T05:06:08;51.80;;;21.33;;
23449;SDS011;11897;45.438;12.128;2023-01-01T05:08:36;42.20;;;20.17;;
23449;SDS011;11897;45.438;12.128;2023-01-01T05:11:04;49.10;;;21.70;;
23449;SDS011;11897;45.438;12.128;2023-01-01T05:13:32;44.97;;;20.10;;
23449;SDS011;11897;45.438;12.128;2023-01-01T05:16:02;49.77;;;19.97;;
23449;SDS011;11897;45.438;12.128;2023-01-01T05:18:29;52.57;;;22.30;;
23449;SDS011;11897;45.438;12.128;2023-01-01T05:20:57;43.93;;;19.80;;
23449;SDS011;11897;45.438;12.128;2023-01-01T05:23:24;52.33;;;21.37;;
23449;SDS011;11897;45.438;12.128;2023-01-01T05:25:51;49.90;;;19.93;;
23449;SDS011;11897;45.438;12.128;2023-01-01T05:28:17;36.63;;;18.67;;
23449;SDS011;11897;45.438;12.128;2023-01-01T05:30:44;44.37;;;21.30;;
23449;SDS011;11897;45.438;12.128;2023-01-01T05:33:12;52.40;;;21.73;;
23449;SDS011;11897;45.438;12.128;2023-01-01T05:35:39;45.83;;;20.20;;
23449;SDS011;11897;45.438;12.128;2023-01-01T05:38:07;42.40;;;18.00;;
23449;SDS011;11897;45.438;12.128;2023-01-01T05:40:36;48.57;;;20.73;;
23449;SDS011;11897;45.438;12.128;2023-01-01T05:43:03;44.60;;;18.17;;
23449;SDS011;11897;45.438;12.128;2023-01-01T05:45:30;45.07;;;20.97;;
23449;SDS011;11897;45.438;12.128;2023-01-01T05:47:57;43.70;;;18.93;;
23449;SDS011;11897;45.438;12.128;2023-01-01T05:50:25;50.20;;;18.57;;
23449;SDS011;11897;45.438;12.128;2023-01-01T05:52:52;43.50;;;18.77;;
23449;SDS011;11897;45.438;12.128;2023-01-01T05:55:18;43.67;;;19.13;;
23449;SDS011;11897;45.438;12.128;2023-01-01T05:57:45;45.97;;;19.23;;
23449;SDS011;11897;45.438;12.128;2023-01-01T06:00:13;48.93;;;19.77;;
23449;SDS011;11897;45.438;12.128;2023-01-01T06:02:39;50.53;;;20.13;;
23449;SDS011;11897;45.438;12.128;2023-01-01T06:05:06;48.93;;;20.10;;
23449;SDS011;11897;45.438;12.128;2023-01-01T06:07:34;42.40;;;18.33;;
23449;SDS011;11897;45.438;12.128;2023-01-01T06:10:01;45.67;;;19.67;;
23449;SDS011;11897;45.438;12.128;2023-01-01T06:12:28;43.00;;;18.77;;
23449;SDS011;11897;45.438;12.128;2023-01-01T06:14:55;55.33;;;21.53;;
23449;SDS011;11897;45.438;12.128;2023-01-01T06:17:21;47.27;;;20.10;;
23449;SDS011;11897;45.438;12.128;2023-01-01T06:19:48;51.90;;;20.10;;
23449;SDS011;11897;45.438;12.128;2023-01-01T06:22:15;39.17;;;18.00;;
23449;SDS011;11897;45.438;12.128;2023-01-01T06:24:43;42.97;;;18.43;;
23449;SDS011;11897;45.438;12.128;2023-01-01T06:27:09;38.17;;;19.00;;
23449;SDS011;11897;45.438;12.128;2023-01-01T06:29:36;43.33;;;19.67;;
23449;SDS011;11897;45.438;12.128;2023-01-01T06:32:03;42.60;;;18.10;;
23449;SDS011;11897;45.438;12.128;2023-01-01T06:34:30;51.90;;;17.90;;
23449;SDS011;11897;45.438;12.128;2023-01-01T06:36:56;49.07;;;20.60;;
23449;SDS011;11897;45.438;12.128;2023-01-01T06:39:23;45.97;;;17.87;;
23449;SDS011;11897;45.438;12.128;2023-01-01T06:41:52;46.00;;;19.03;;
23449;SDS011;11897;45.438;12.128;2023-01-01T06:44:19;44.40;;;19.57;;
23449;SDS011;11897;45.438;12.128;2023-01-01T06:46:46;39.97;;;17.67;;
23449;SDS011;11897;45.438;12.128;2023-01-01T06:49:13;37.40;;;17.50;;
23449;SDS011;11897;45.438;12.128;2023-01-01T06:51:40;46.17;;;17.80;;
23449;SDS011;11897;45.438;12.128;2023-01-01T06:54:07;44.33;;;19.20;;
23449;SDS011;11897;45.438;12.128;2023-01-01T06:56:34;45.97;;;17.60;;
23449;SDS011;11897;45.438;12.128;2023-01-01T06:59:03;44.50;;;17.57;;
23449;SDS011;11897;45.438;12.128;2023-01-01T07:01:31;48.97;;;19.10;;
23449;SDS011;11897;45.438;12.128;2023-01-01T07:03:59;44.30;;;19.17;;
23449;SDS011;11897;45.438;12.128;2023-01-01T07:06:26;41.00;;;17.60;;
23449;SDS011;11897;45.438;12.128;2023-01-01T07:08:53;37.30;;;17.97;;
23449;SDS011;11897;45.438;12.128;2023-01-01T07:11:20;43.07;;;18.27;;
23449;SDS011;11897;45.438;12.128;2023-01-01T07:13:48;40.30;;;17.13;;
23449;SDS011;11897;45.438;12.128;2023-01-01T07:16:16;48.57;;;19.00;;
23449;SDS011;11897;45.438;12.128;2023-01-01T07:18:43;43.17;;;18.40;;
23449;SDS011;11897;45.438;12.128;2023-01-01T07:23:58;50.87;;;19.67;;
23449;SDS011;11897;45.438;12.128;2023-01-01T07:26:25;39.23;;;17.53;;
23449;SDS011;11897;45.438;12.128;2023-01-01T07:28:52;43.67;;;18.20;;
23449;SDS011;11897;45.438;12.128;2023-01-01T07:31:20;51.53;;;19.37;;
23449;SDS011;11897;45.438;12.128;2023-01-01T07:33:47;38.70;;;18.07;;
23449;SDS011;11897;45.438;12.128;2023-01-01T07:36:14;44.43;;;18.67;;
23449;SDS011;11897;45.438;12.128;2023-01-01T07:38:41;34.80;;;18.20;;
23449;SDS011;11897;45.438;12.128;2023-01-01T07:41:08;48.00;;;18.93;;
23449;SDS011;11897;45.438;12.128;2023-01-01T07:43:35;35.27;;;17.10;;
23449;SDS011;11897;45.438;12.128;2023-01-01T07:46:01;43.07;;;20.33;;
23449;SDS011;11897;45.438;12.128;2023-01-01T07:48:29;33.33;;;17.83;;
23449;SDS011;11897;45.438;12.128;2023-01-01T07:50:56;50.43;;;18.63;;
23449;SDS011;11897;45.438;12.128;2023-01-01T07:53:23;42.27;;;18.13;;
23449;SDS011;11897;45.438;12.128;2023-01-01T07:55:49;34.70;;;18.13;;
23449;SDS011;11897;45.438;12.128;2023-01-01T07:58:16;39.00;;;19.17;;
23449;SDS011;11897;45.438;12.128;2023-01-01T08:00:44;39.30;;;17.80;;
23449;SDS011;11897;45.438;12.128;2023-01-01T08:03:11;44.20;;;17.60;;
23449;SDS011;11897;45.438;12.128;2023-01-01T08:05:39;43.73;;;17.63;;
23449;SDS011;11897;45.438;12.128;2023-01-01T08:08:05;49.80;;;19.13;;
23449;SDS011;11897;45.438;12.128;2023-01-01T08:10:32;47.50;;;19.00;;
23449;SDS011;11897;45.438;12.128;2023-01-01T08:12:59;45.20;;;19.80;;
23449;SDS011;11897;45.438;12.128;2023-01-01T08:15:26;47.80;;;17.57;;
23449;SDS011;11897;45.438;12.128;2023-01-01T08:17:54;44.47;;;18.73;;
23449;SDS011;11897;45.438;12.128;2023-01-01T08:20:21;40.10;;;17.17;;
23449;SDS011;11897;45.438;12.128;2023-01-01T08:22:49;47.30;;;19.50;;
23449;SDS011;11897;45.438;12.128;2023-01-01T08:25:16;51.30;;;19.10;;
23449;SDS011;11897;45.438;12.128;2023-01-01T08:27:45;39.07;;;19.83;;
23449;SDS011;11897;45.438;12.128;2023-01-01T08:30:12;46.37;;;17.70;;
23449;SDS011;11897;45.438;12.128;2023-01-01T08:32:39;38.93;;;16.77;;
23449;SDS011;11897;45.438;12.128;2023-01-01T08:35:06;40.97;;;16.83;;
23449;SDS011;11897;45.438;12.128;2023-01-01T08:37:33;38.60;;;15.97;;
23449;SDS011;11897;45.438;12.128;2023-01-01T08:40:01;36.87;;;16.57;;
23449;SDS011;11897;45.438;12.128;2023-01-01T08:42:27;37.63;;;15.40;;
23449;SDS011;11897;45.438;12.128;2023-01-01T08:44:54;36.27;;;14.90;;
23449;SDS011;11897;45.438;12.128;2023-01-01T08:47:22;33.23;;;14.57;;
23449;SDS011;11897;45.438;12.128;2023-01-01T08:49:49;36.60;;;14.40;;
23449;SDS011;11897;45.438;12.128;2023-01-01T08:52:16;32.23;;;14.43;;
23449;SDS011;11897;45.438;12.128;2023-01-01T08:54:43;30.80;;;13.80;;
23449;SDS011;11897;45.438;12.128;2023-01-01T08:57:12;25.83;;;13.03;;
23449;SDS011;11897;45.438;12.128;2023-01-01T08:59:38;23.40;;;11.77;;
23449;SDS011;11897;45.438;12.128;2023-01-01T09:02:05;27.47;;;13.90;;
23449;SDS011;11897;45.438;12.128;2023-01-01T09:04:32;26.40;;;12.80;;
23449;SDS011;11897;45.438;12.128;2023-01-01T09:06:59;27.43;;;10.97;;
23449;SDS011;11897;45.438;12.128;2023-01-01T09:09:26;27.53;;;13.10;;
23449;SDS011;11897;45.438;12.128;2023-01-01T09:11:53;25.03;;;12.27;;
23449;SDS011;11897;45.438;12.128;2023-01-01T09:14:21;28.23;;;12.10;;
23449;SDS011;11897;45.438;12.128;2023-01-01T09:16:48;27.13;;;13.33;;
23449;SDS011;11897;45.438;12.128;2023-01-01T09:19:17;25.73;;;10.83;;
23449;SDS011;11897;45.438;12.128;2023-01-01T09:21:43;20.93;;;9.33;;
23449;SDS011;11897;45.438;12.128;2023-01-01T09:24:10;25.47;;;10.67;;
23449;SDS011;11897;45.438;12.128;2023-01-01T09:26:37;25.60;;;10.33;;
23449;SDS011;11897;45.438;12.128;2023-01-01T09:29:04;19.03;;;9.97;;
23449;SDS011;11897;45.438;12.128;2023-01-01T09:31:33;24.33;;;11.13;;
23449;SDS011;11897;45.438;12.128;2023-01-01T09:33:59;17.90;;;9.67;;
23449;SDS011;11897;45.438;12.128;2023-01-01T09:36:27;20.80;;;10.17;;
23449;SDS011;11897;45.438;12.128;2023-01-01T09:38:54;20.67;;;9.73;;
23449;SDS011;11897;45.438;12.128;2023-01-01T09:41:22;21.90;;;10.73;;
23449;SDS011;11897;45.438;12.128;2023-01-01T09:43:54;16.20;;;9.63;;
23449;SDS011;11897;45.438;12.128;2023-01-01T09:46:23;18.27;;;9.43;;
23449;SDS011;11897;45.438;12.128;2023-01-01T09:48:52;18.60;;;9.70;;
23449;SDS011;11897;45.438;12.128;2023-01-01T09:51:22;19.67;;;10.70;;
23449;SDS011;11897;45.438;12.128;2023-01-01T09:53:50;23.93;;;11.83;;
23449;SDS011;11897;45.438;12.128;2023-01-01T09:56:21;24.17;;;11.43;;
23449;SDS011;11897;45.438;12.128;2023-01-01T09:58:49;19.80;;;10.63;;
23449;SDS011;11897;45.438;12.128;2023-01-01T10:01:26;19.17;;;10.60;;
23449;SDS011;11897;45.438;12.128;2023-01-01T10:03:57;22.13;;;11.17;;
23449;SDS011;11897;45.438;12.128;2023-01-01T10:06:27;18.47;;;11.00;;
23449;SDS011;11897;45.438;12.128;2023-01-01T10:09:00;21.13;;;10.33;;
23449;SDS011;11897;45.438;12.128;2023-01-01T10:11:30;17.23;;;9.40;;
23449;SDS011;11897;45.438;12.128;2023-01-01T10:14:01;22.30;;;11.10;;
23449;SDS011;11897;45.438;12.128;2023-01-01T10:16:31;20.87;;;10.90;;
23449;SDS011;11897;45.438;12.128;2023-01-01T10:19:01;21.47;;;11.13;;
23449;SDS011;11897;45.438;12.128;2023-01-01T10:21:31;18.80;;;9.47;;
23449;SDS011;11897;45.438;12.128;2023-01-01T10:24:00;19.60;;;10.20;;
23449;SDS011;11897;45.438;12.128;2023-01-01T10:26:29;21.60;;;9.97;;
23449;SDS011;11897;45.438;12.128;2023-01-01T10:28:57;21.43;;;10.60;;
23449;SDS011;11897;45.438;12.128;2023-01-01T10:31:28;20.27;;;11.17;;
23449;SDS011;11897;45.438;12.128;2023-01-01T10:33:55;23.17;;;11.00;;
23449;SDS011;11897;45.438;12.128;2023-01-01T10:36:23;29.83;;;10.90;;
23449;SDS011;11897;45.438;12.128;2023-01-01T10:38:51;18.17;;;9.27;;
23449;SDS011;11897;45.438;12.128;2023-01-01T10:41:18;19.43;;;10.03;;
23449;SDS011;11897;45.438;12.128;2023-01-01T10:43:44;22.83;;;10.07;;
23449;SDS011;11897;45.438;12.128;2023-01-01T10:46:11;21.07;;;11.03;;
23449;SDS011;11897;45.438;12.128;2023-01-01T10:48:40;22.27;;;10.53;;
23449;SDS011;11897;45.438;12.128;2023-01-01T10:51:28;25.00;;;11.00;;
23449;SDS011;11897;45.438;12.128;2023-01-01T10:53:55;22.50;;;10.87;;
23449;SDS011;11897;45.438;12.128;2023-01-01T10:56:22;26.13;;;10.70;;
23449;SDS011;11897;45.438;12.128;2023-01-01T10:58:53;20.80;;;9.73;;
23449;SDS011;11897;45.438;12.128;2023-01-01T11:01:22;22.03;;;10.27;;
23449;SDS011;11897;45.438;12.128;2023-01-01T11:03:56;22.43;;;11.70;;
23449;SDS011;11897;45.438;12.128;2023-01-01T11:06:23;22.07;;;10.43;;
23449;SDS011;11897;45.438;12.128;2023-01-01T11:08:53;20.37;;;10.27;;
23449;SDS011;11897;45.438;12.128;2023-01-01T11:11:20;23.47;;;10.90;;
23449;SDS011;11897;45.438;12.128;2023-01-01T11:13:50;21.37;;;11.83;;
23449;SDS011;11897;45.438;12.128;2023-01-01T11:16:18;27.73;;;11.87;;
23449;SDS011;11897;45.438;12.128;2023-01-01T11:18:45;23.53;;;10.77;;
23449;SDS011;11897;45.438;12.128;2023-01-01T11:21:17;28.63;;;12.20;;
23449;SDS011;11897;45.438;12.128;2023-01-01T11:23:44;21.77;;;10.83;;
23449;SDS011;11897;45.438;12.128;2023-01-01T11:26:20;21.83;;;10.70;;
23449;SDS011;11897;45.438;12.128;2023-01-01T11:28:57;24.70;;;11.30;;
23449;SDS011;11897;45.438;12.128;2023-01-01T11:31:24;24.27;;;11.03;;
23449;SDS011;11897;45.438;12.128;2023-01-01T11:33:53;20.27;;;10.83;;
23449;SDS011;11897;45.438;12.128;2023-01-01T11:36:21;21.97;;;10.10;;
23449;SDS011;11897;45.438;12.128;2023-01-01T11:38:49;27.93;;;10.33;;
23449;SDS011;11897;45.438;12.128;2023-01-01T11:41:16;22.37;;;10.00;;
23449;SDS011;11897;45.438;12.128;2023-01-01T11:43:44;23.30;;;10.23;;
23449;SDS011;11897;45.438;12.128;2023-01-01T11:46:14;22.17;;;10.37;;
23449;SDS011;11897;45.438;12.128;2023-01-01T11:48:42;24.27;;;9.97;;
23449;SDS011;11897;45.438;12.128;2023-01-01T11:51:10;20.53;;;10.27;;
23449;SDS011;11897;45.438;12.128;2023-01-01T11:53:37;22.40;;;9.77;;
23449;SDS011;11897;45.438;12.128;2023-01-01T11:56:07;21.50;;;9.47;;
23449;SDS011;11897;45.438;12.128;2023-01-01T11:58:37;24.93;;;10.90;;
23449;SDS011;11897;45.438;12.128;2023-01-01T12:01:09;21.10;;;11.00;;
23449;SDS011;11897;45.438;12.128;2023-01-01T12:03:38;20.37;;;10.53;;
23449;SDS011;11897;45.438;12.128;2023-01-01T12:06:06;24.63;;;11.43;;
23449;SDS011;11897;45.438;12.128;2023-01-01T12:08:35;22.77;;;9.47;;
23449;SDS011;11897;45.438;12.128;2023-01-01T12:11:05;19.37;;;9.63;;
23449;SDS011;11897;45.438;12.128;2023-01-01T12:13:36;21.77;;;9.80;;
23449;SDS011;11897;45.438;12.128;2023-01-01T12:16:10;23.37;;;9.87;;
23449;SDS011;11897;45.438;12.128;2023-01-01T12:18:40;16.63;;;8.93;;
23449;SDS011;11897;45.438;12.128;2023-01-01T12:21:10;23.03;;;10.20;;
23449;SDS011;11897;45.438;12.128;2023-01-01T12:23:41;25.67;;;9.80;;
23449;SDS011;11897;45.438;12.128;2023-01-01T12:26:12;24.00;;;10.37;;
23449;SDS011;11897;45.438;12.128;2023-01-01T12:28:42;21.80;;;10.17;;
23449;SDS011;11897;45.438;12.128;2023-01-01T12:31:14;20.07;;;8.63;;
23449;SDS011;11897;45.438;12.128;2023-01-01T12:33:46;17.70;;;8.80;;
23449;SDS011;11897;45.438;12.128;2023-01-01T12:36:24;27.67;;;10.87;;
23449;SDS011;11897;45.438;12.128;2023-01-01T12:39:06;24.47;;;9.87;;
23449;SDS011;11897;45.438;12.128;2023-01-01T12:41:51;15.90;;;8.10;;
23449;SDS011;11897;45.438;12.128;2023-01-01T12:44:24;24.83;;;11.60;;
23449;SDS011;11897;45.438;12.128;2023-01-01T12:47:01;22.37;;;10.57;;
23449;SDS011;11897;45.438;12.128;2023-01-01T12:49:35;21.37;;;10.20;;
23449;SDS011;11897;45.438;12.128;2023-01-01T12:52:09;19.90;;;8.60;;
23449;SDS011;11897;45.438;12.128;2023-01-01T12:54:54;23.17;;;10.73;;
23449;SDS011;11897;45.438;12.128;2023-01-01T12:57:28;21.20;;;9.67;;
23449;SDS011;11897;45.438;12.128;2023-01-01T12:59:58;21.97;;;10.87;;
23449;SDS011;11897;45.438;12.128;2023-01-01T13:02:27;21.43;;;10.10;;
23449;SDS011;11897;45.438;12.128;2023-01-01T13:04:55;26.43;;;11.50;;
23449;SDS011;11897;45.438;12.128;2023-01-01T13:07:25;25.13;;;11.93;;
23449;SDS011;11897;45.438;12.128;2023-01-01T13:09:53;21.67;;;10.30;;
23449;SDS011;11897;45.438;12.128;2023-01-01T13:12:21;28.87;;;10.47;;
23449;SDS011;11897;45.438;12.128;2023-01-01T13:14:49;26.67;;;11.57;;
23449;SDS011;11897;45.438;12.128;2023-01-01T13:17:17;22.03;;;9.70;;
23449;SDS011;11897;45.438;12.128;2023-01-01T13:19:45;24.40;;;10.33;;
23449;SDS011;11897;45.438;12.128;2023-01-01T13:25:19;21.50;;;9.80;;
23449;SDS011;11897;45.438;12.128;2023-01-01T13:28:02;19.90;;;11.03;;
23449;SDS011;11897;45.438;12.128;2023-01-01T13:30:45;24.63;;;11.00;;
23449;SDS011;11897;45.438;12.128;2023-01-01T13:33:15;26.17;;;12.13;;
23449;SDS011;11897;45.438;12.128;2023-01-01T13:35:43;31.63;;;12.10;;
23449;SDS011;11897;45.438;12.128;2023-01-01T13:40:52;24.93;;;10.37;;
23449;SDS011;11897;45.438;12.128;2023-01-01T13:43:26;22.03;;;10.27;;
23449;SDS011;11897;45.438;12.128;2023-01-01T13:45:53;25.50;;;10.60;;
23449;SDS011;11897;45.438;12.128;2023-01-01T13:48:31;27.73;;;10.30;;
23449;SDS011;11897;45.438;12.128;2023-01-01T13:51:13;24.57;;;9.63;;
23449;SDS011;11897;45.438;12.128;2023-01-01T13:53:57;25.27;;;10.47;;
23449;SDS011;11897;45.438;12.128;2023-01-01T13:56:29;26.23;;;11.20;;
23449;SDS011;11897;45.438;12.128;2023-01-01T13:59:04;26.50;;;11.03;;
23449;SDS011;11897;45.438;12.128;2023-01-01T14:01:44;22.30;;;9.13;;
23449;SDS011;11897;45.438;12.128;2023-01-01T14:04:17;21.67;;;10.53;;
23449;SDS011;11897;45.438;12.128;2023-01-01T14:06:48;24.37;;;11.00;;
23449;SDS011;11897;45.438;12.128;2023-01-01T14:09:17;26.47;;;11.53;;
23449;SDS011;11897;45.438;12.128;2023-01-01T14:11:45;26.33;;;11.10;;
23449;SDS011;11897;45.438;12.128;2023-01-01T14:14:18;27.13;;;10.43;;
23449;SDS011;11897;45.438;12.128;2023-01-01T14:16:49;27.77;;;11.57;;
23449;SDS011;11897;45.438;12.128;2023-01-01T14:19:16;29.23;;;10.60;;
23449;SDS011;11897;45.438;12.128;2023-01-01T14:21:43;26.20;;;10.03;;
23449;SDS011;11897;45.438;12.128;2023-01-01T14:24:11;18.23;;;8.70;;
23449;SDS011;11897;45.438;12.128;2023-01-01T14:26:40;29.97;;;10.53;;
23449;SDS011;11897;45.438;12.128;2023-01-01T14:29:07;24.60;;;11.03;;
23449;SDS011;11897;45.438;12.128;2023-01-01T14:31:34;29.43;;;10.50;;